Time;durP1;ratioP1;P1;durP2;ratioP2;P2;SDS_P1;SDS_P2;PMS_P1;PMS_P2;Temp;Humidity;BMP_temperature;BMP_pressure;BME280_temperature;BME280_humidity;BME280_pressure;Samples;Min_cycle;Max_cycle;Signal;HPM_P1;HPM_P2
2021/12/20 00:00:36;;;;;;;11.75;2.58;;;6.50;99.90;;;;;;6217944;23;20532;-77
2021/12/20 00:03:53;;;;;;;10.05;2.50;;;6.80;99.90;;;;;;6218806;23;20058;-77
2021/12/20 00:21:11;;;;;;;10.73;2.53;;;6.50;99.90;;;;;;6245682;23;20024;-77
2021/12/20 00:32:08;;;;;;;12.30;2.50;;;6.40;99.90;;;;;;6218512;23;20069;-77
2021/12/20 00:42:25;;;;;;;8.50;1.83;;;6.30;99.90;;;;;;6243984;23;20008;-77
2021/12/20 00:51:35;;;;;;;11.10;1.98;;;7.60;99.90;;;;;;6245216;23;20012;-77
2021/12/20 00:57:34;;;;;;;13.07;2.35;;;6.50;99.90;;;;;;6244229;23;19910;-77
2021/12/20 01:00:00;;;;;;;10.30;1.98;;;6.40;99.90;;;;;;6218069;23;20348;-77
2021/12/20 01:02:25;;;;;;;;;;;6.40;99.90;;;;;;6218485;23;20027;-77
2021/12/20 01:04:51;;;;;;;7.25;1.83;;;6.40;99.90;;;;;;6217177;23;20406;-77
2021/12/20 01:07:16;;;;;;;;;;;6.40;99.90;;;;;;6218798;23;20012;-77
2021/12/20 01:09:42;;;;;;;9.65;1.88;;;6.40;99.90;;;;;;6217907;23;19916;-77
2021/12/20 01:12:15;;;;;;;8.73;2.05;;;6.40;99.90;;;;;;6242977;23;20438;-77
2021/12/20 01:17:26;;;;;;;10.52;2.03;;;6.50;99.90;;;;;;6153459;22;20024;-76
2021/12/20 01:20:46;;;;;;;5.05;1.75;;;6.40;99.90;;;;;;6217329;23;20107;-76
2021/12/20 01:23:13;;;;;;;10.85;1.83;;;5.70;99.90;;;;;;6217451;23;20134;-77
2021/12/20 01:25:48;;;;;;;11.48;2.20;;;6.50;99.90;;;;;;6216627;23;20459;-76
2021/12/20 01:28:14;;;;;;;9.80;1.88;;;6.50;99.90;;;;;;6218010;23;20051;-77
2021/12/20 01:30:40;;;;;;;;;;;6.50;99.90;;;;;;6218523;23;20012;-75
2021/12/20 01:33:08;;;;;;;8.18;2.00;;;6.50;99.90;;;;;;6217356;23;19915;-76
2021/12/20 01:35:35;;;;;;;7.18;2.30;;;6.50;99.90;;;;;;6217615;23;20016;-76
2021/12/20 01:38:01;;;;;;;6.90;1.77;;;6.40;99.90;;;;;;6217462;23;20055;-77
2021/12/20 01:40:26;;;;;;;;;;;6.50;99.90;;;;;;6217856;23;20027;-76
2021/12/20 01:42:56;;;;;;;9.30;1.80;;;6.40;99.90;;;;;;6217691;23;19915;-76
2021/12/20 01:45:23;;;;;;;5.20;1.73;;;6.50;99.90;;;;;;6217668;23;20098;-77
2021/12/20 01:47:59;;;;;;;11.85;1.67;;;6.50;99.90;;;;;;6217534;23;20378;-77
2021/12/20 01:50:41;;;;;;;9.18;2.15;;;6.50;99.90;;;;;;6217033;23;20054;-77
2021/12/20 01:56:38;;;;;;;7.30;2.40;;;6.50;99.90;;;;;;6217409;23;20448;-78
2021/12/20 01:59:29;;;;;;;7.97;1.80;;;6.50;99.90;;;;;;6217231;22;20016;-77
2021/12/20 02:01:56;;;;;;;9.68;2.28;;;6.40;99.90;;;;;;6217453;23;20074;-77
2021/12/20 02:04:22;;;;;;;12.50;1.98;;;6.40;99.90;;;;;;6217571;23;20020;-77
2021/12/20 02:06:49;;;;;;;7.57;2.28;;;6.50;99.90;;;;;;6216630;23;20020;-76
2021/12/20 02:09:19;;;;;;;6.45;1.77;;;6.50;99.90;;;;;;6217702;23;20016;-77
2021/12/20 02:14:32;;;;;;;;;;;6.50;99.90;;;;;;6243133;22;20024;-76
2021/12/20 02:17:29;;;;;;;7.68;1.95;;;6.50;99.90;;;;;;6192927;23;19915;-76
2021/12/20 02:23:50;;;;;;;5.72;2.15;;;6.70;99.90;;;;;;6244667;23;20595;-77
2021/12/20 02:26:57;;;;;;;5.35;1.60;;;6.40;99.90;;;;;;6217899;23;20336;-77
2021/12/20 02:29:59;;;;;;;8.10;1.80;;;6.20;99.90;;;;;;6217155;23;20016;-77
2021/12/20 02:37:54;;;;;;;7.63;1.45;;;6.40;99.90;;;;;;6245356;23;20024;-77
2021/12/20 02:40:22;;;;;;;7.47;1.48;;;5.70;99.90;;;;;;6217615;23;20374;-77
2021/12/20 02:42:49;;;;;;;7.90;2.08;;;6.40;99.90;;;;;;6216736;23;20020;-77
2021/12/20 02:45:17;;;;;;;9.30;1.70;;;6.40;99.90;;;;;;6217331;23;20020;-77
2021/12/20 02:47:44;;;;;;;;;;;6.40;99.90;;;;;;6245566;23;20024;-77
2021/12/20 02:50:11;;;;;;;5.60;1.27;;;6.40;99.90;;;;;;6244527;23;20252;-77
2021/12/20 02:52:37;;;;;;;6.65;1.75;;;6.40;99.90;;;;;;6246035;23;20019;-77
2021/12/20 02:55:05;;;;;;;6.53;1.40;;;6.40;99.90;;;;;;6219510;23;20066;-77
2021/12/20 02:57:36;;;;;;;6.15;1.20;;;6.40;99.90;;;;;;6217993;23;20432;-77
2021/12/20 03:00:05;;;;;;;5.30;1.30;;;6.40;99.90;;;;;;6220482;23;20027;-77
2021/12/20 03:02:31;;;;;;;4.88;1.42;;;6.40;99.90;;;;;;6246294;23;20023;-77
2021/12/20 03:04:56;;;;;;;;;;;6.40;99.90;;;;;;6218892;23;20024;-77
2021/12/20 03:07:26;;;;;;;5.97;1.40;;;6.40;99.90;;;;;;6218211;23;19916;-77
2021/12/20 03:09:57;;;;;;;6.28;1.40;;;6.40;99.90;;;;;;6245753;23;20016;-77
2021/12/20 03:15:27;;;;;;;7.57;1.30;;;6.30;99.90;;;;;;6263360;22;20090;-76
2021/12/20 03:25:21;;;;;;;4.82;1.17;;;6.30;99.90;;;;;;6218510;23;20032;-77
2021/12/20 03:27:58;;;;;;;3.95;1.17;;;6.30;99.90;;;;;;6219025;23;20024;-76
2021/12/20 03:30:46;;;;;;;5.00;1.10;;;6.20;99.90;;;;;;6218703;23;20012;-76
2021/12/20 03:33:12;;;;;;;5.50;1.20;;;6.30;99.90;;;;;;6219094;23;20432;-76
2021/12/20 03:38:41;;;;;;;8.43;1.40;;;6.10;99.90;;;;;;6244522;23;19911;-75
2021/12/20 03:44:32;;;;;;;6.35;1.33;;;6.10;99.90;;;;;;6245981;23;20003;-76
2021/12/20 03:47:04;;;;;;;8.23;1.13;;;7.40;99.90;;;;;;6219193;23;20048;-76
2021/12/20 03:49:36;;;;;;;3.95;1.02;;;6.10;99.90;;;;;;6219070;23;20020;-76
2021/12/20 03:52:04;;;;;;;4.97;1.05;;;5.90;99.90;;;;;;6218434;23;20433;-76
2021/12/20 03:54:30;;;;;;;4.80;1.08;;;5.90;99.90;;;;;;6219054;23;20392;-76
2021/12/20 03:56:55;;;;;;;3.20;1.02;;;5.90;99.90;;;;;;6218929;23;20016;-77
2021/12/20 03:59:21;;;;;;;;;;;5.80;99.90;;;;;;6218618;23;20486;-77
2021/12/20 04:01:47;;;;;;;4.47;1.05;;;5.70;99.90;;;;;;6219050;23;19917;-76
2021/12/20 04:04:12;;;;;;;;;;;5.70;99.90;;;;;;6219012;23;20028;-77
2021/12/20 04:06:38;;;;;;;4.72;0.95;;;5.60;99.90;;;;;;6218249;23;20232;-77
2021/12/20 04:09:06;;;;;;;;;;;5.50;99.90;;;;;;6220085;23;20023;-77
2021/12/20 04:11:32;;;;;;;2.30;0.95;;;5.50;99.90;;;;;;6218561;23;19915;-76
2021/12/20 04:13:58;;;;;;;;;;;5.40;99.90;;;;;;6218640;23;20471;-76
2021/12/20 04:16:24;;;;;;;4.65;1.00;;;5.30;99.90;;;;;;6218282;23;20320;-77
2021/12/20 04:18:50;;;;;;;4.60;0.90;;;5.20;99.90;;;;;;6218837;23;20056;-76
2021/12/20 04:21:15;;;;;;;;;;;5.20;99.90;;;;;;6218142;23;20034;-76
2021/12/20 04:23:41;;;;;;;2.92;1.08;;;5.10;99.90;;;;;;6218676;23;19915;-76
2021/12/20 04:26:06;;;;;;;;;;;5.00;99.90;;;;;;6218969;23;20016;-76
2021/12/20 04:28:32;;;;;;;6.40;2.47;;;5.00;99.90;;;;;;6244661;23;19915;-76
2021/12/20 04:30:58;;;;;;;;;;;4.90;99.90;;;;;;6218552;23;20016;-76
2021/12/20 04:33:24;;;;;;;2.92;1.10;;;4.80;99.90;;;;;;6245357;23;19958;-76
2021/12/20 04:35:49;;;;;;;;;;;4.70;99.90;;;;;;6218705;23;20095;-76
2021/12/20 04:38:16;;;;;;;5.28;1.00;;;4.70;99.90;;;;;;6218410;23;20363;-76
2021/12/20 04:40:42;;;;;;;5.97;1.13;;;4.60;99.90;;;;;;6245237;23;20329;-76
2021/12/20 04:43:07;;;;;;;;;;;4.50;99.90;;;;;;6244850;23;20023;-76
2021/12/20 04:45:37;;;;;;;2.63;1.05;;;4.50;99.90;;;;;;6245716;23;19995;-76
2021/12/20 04:48:06;;;;;;;4.50;1.02;;;4.90;99.90;;;;;;6218052;23;20016;-76
2021/12/20 04:50:32;;;;;;;3.72;0.90;;;4.30;99.90;;;;;;6216537;22;20086;-76
2021/12/20 04:52:58;;;;;;;;;;;4.30;99.90;;;;;;6218865;23;20440;-75
2021/12/20 04:55:25;;;;;;;6.47;1.20;;;4.30;99.90;;;;;;6217493;23;19915;-75
2021/12/20 04:58:13;;;;;;;3.67;0.90;;;4.20;99.90;;;;;;6218214;23;20020;-76
2021/12/20 05:00:43;;;;;;;3.80;1.10;;;4.20;99.90;;;;;;6218307;23;20016;-75
2021/12/20 05:03:10;;;;;;;8.38;1.10;;;4.20;99.90;;;;;;6216769;23;20016;-76
2021/12/20 05:05:37;;;;;;;2.45;0.80;;;4.20;99.90;;;;;;6218888;23;20094;-76
2021/12/20 05:08:03;;;;;;;4.03;1.33;;;4.20;99.90;;;;;;6218044;23;20498;-76
2021/12/20 05:10:33;;;;;;;6.13;1.23;;;4.20;99.90;;;;;;6217301;23;20067;-76
2021/12/20 05:13:06;;;;;;;3.97;1.10;;;4.20;99.90;;;;;;6218155;23;20427;-76
2021/12/20 05:15:33;;;;;;;2.88;0.80;;;4.30;99.90;;;;;;6218054;23;20008;-76
2021/12/20 05:17:59;;;;;;;3.28;1.00;;;4.30;99.90;;;;;;6217811;23;20015;-76
2021/12/20 05:20:35;;;;;;;4.53;1.30;;;4.40;99.90;;;;;;6218539;23;20016;-76
2021/12/20 05:23:02;;;;;;;2.92;1.00;;;4.40;99.90;;;;;;6243190;23;20258;-76
2021/12/20 05:25:28;;;;;;;6.13;1.20;;;4.40;99.90;;;;;;6244600;23;20417;-76
2021/12/20 05:27:54;;;;;;;;;;;4.40;99.90;;;;;;6218382;23;20024;-76
2021/12/20 05:30:20;;;;;;;3.63;1.08;;;4.40;99.90;;;;;;6244719;23;19978;-76
2021/12/20 05:32:46;;;;;;;;;;;4.50;99.90;;;;;;6218669;23;20396;-76
2021/12/20 05:35:13;;;;;;;5.13;1.23;;;4.50;99.90;;;;;;6245121;23;19998;-76
2021/12/20 05:37:40;;;;;;;5.22;1.27;;;4.50;99.90;;;;;;6216985;23;20020;-76
2021/12/20 05:40:08;;;;;;;3.42;1.10;;;4.50;99.90;;;;;;6217699;23;20024;-76
2021/12/20 05:42:34;;;;;;;3.70;1.05;;;4.50;99.90;;;;;;6217577;23;20061;-76
2021/12/20 05:44:59;;;;;;;;;;;4.50;99.90;;;;;;6217895;23;20099;-76
2021/12/20 05:47:25;;;;;;;1.95;0.80;;;4.60;99.90;;;;;;6245129;23;19916;-77
2021/12/20 05:49:51;;;;;;;;;;;4.60;99.90;;;;;;6219083;23;20452;-77
2021/12/20 05:52:19;;;;;;;3.90;1.00;;;4.60;99.90;;;;;;6244335;23;19925;-77
2021/12/20 05:54:45;;;;;;;;;;;4.60;99.90;;;;;;6218614;23;20008;-77
2021/12/20 05:57:11;;;;;;;4.55;1.10;;;4.70;99.90;;;;;;6217902;23;20385;-77
2021/12/20 05:59:37;;;;;;;4.82;1.10;;;4.70;99.90;;;;;;6217684;23;20020;-77
2021/12/20 06:02:02;;;;;;;;;;;4.70;99.90;;;;;;6246078;23;20016;-77
2021/12/20 06:04:28;;;;;;;4.60;1.80;;;4.70;99.90;;;;;;6217638;23;19926;-77
2021/12/20 06:06:54;;;;;;;;;;;4.70;99.90;;;;;;6217749;23;20012;-77
2021/12/20 06:09:19;;;;;;;3.60;1.10;;;4.70;99.90;;;;;;6217935;23;19951;-78
2021/12/20 06:11:45;;;;;;;;;;;4.70;99.90;;;;;;6218509;23;20020;-78
2021/12/20 06:14:10;;;;;;;1.67;0.70;;;4.70;99.90;;;;;;6217101;23;20340;-77
2021/12/20 06:16:36;;;;;;;;;;;4.80;99.90;;;;;;6218762;23;20015;-77
2021/12/20 06:19:02;;;;;;;3.50;1.17;;;4.80;99.90;;;;;;6218413;23;19919;-78
2021/12/20 06:21:31;;;;;;;4.25;1.17;;;4.80;99.90;;;;;;6216246;23;20023;-77
2021/12/20 06:23:59;;;;;;;2.17;0.90;;;4.80;99.90;;;;;;6243846;23;20021;-78
2021/12/20 06:26:25;;;;;;;2.80;1.10;;;4.90;99.90;;;;;;6216857;23;20024;-78
2021/12/20 06:28:51;;;;;;;;;;;4.80;99.90;;;;;;6217510;23;20020;-78
2021/12/20 06:31:17;;;;;;;2.95;2.00;;;4.90;99.90;;;;;;6217520;23;19998;-78
2021/12/20 07:14:13;;;;;;;6.78;1.77;;;5.10;99.90;;;;;;6243822;22;20514;-76
2021/12/20 07:17:48;;;;;;;6.00;1.25;;;5.10;99.90;;;;;;6217680;23;20348;-76
2021/12/20 07:20:17;;;;;;;7.72;1.30;;;5.90;99.90;;;;;;6192797;23;20027;-76
2021/12/20 07:41:04;;;;;;;7.97;2.88;;;4.50;99.90;;;;;;6218393;23;20467;-79
2021/12/20 07:43:32;;;;;;;;;;;5.10;99.90;;;;;;6217983;23;20016;-78
2021/12/20 07:45:58;;;;;;;4.90;1.52;;;5.80;99.90;;;;;;6217177;23;19916;-77
2021/12/20 07:48:24;;;;;;;;;;;5.20;99.90;;;;;;6246293;23;20055;-78
2021/12/20 07:50:51;;;;;;;8.80;1.60;;;5.20;99.90;;;;;;6217354;23;19931;-77
2021/12/20 07:53:17;;;;;;;6.82;2.75;;;5.20;99.90;;;;;;6218523;23;20020;-78
2021/12/20 07:55:42;;;;;;;;;;;5.20;99.90;;;;;;6219324;23;20019;-77
2021/12/20 07:58:08;;;;;;;33.40;19.95;;;5.20;99.90;;;;;;6218300;23;19923;-78
2021/12/20 08:00:34;;;;;;;;;;;5.30;99.90;;;;;;6243699;23;20008;-76
2021/12/20 08:03:00;;;;;;;18.23;9.85;;;5.30;99.90;;;;;;6245511;23;19915;-76
2021/12/20 08:05:26;;;;;;;;;;;5.30;99.90;;;;;;6217495;23;20058;-77
2021/12/20 08:07:52;;;;;;;18.95;5.80;;;5.30;99.90;;;;;;6218386;23;19977;-78
2021/12/20 08:13:10;;;;;;;7.93;2.67;;;5.40;99.90;;;;;;6224923;22;19915;-77
2021/12/20 08:15:54;;;;;;;8.52;2.95;;;5.90;99.90;;;;;;6219044;23;20027;-78
2021/12/20 08:29:56;;;;;;;15.45;3.00;;;5.50;99.90;;;;;;6244745;23;20015;-75
2021/12/20 08:32:22;;;;;;;9.85;2.78;;;5.90;99.90;;;;;;6217980;23;20047;-78
2021/12/20 08:48:42;;;;;;;12.05;5.90;;;6.20;99.90;;;;;;6235147;23;20019;-81
2021/12/20 08:51:26;;;;;;;11.88;6.78;;;6.30;99.90;;;;;;6217790;23;20067;-78
2021/12/20 08:54:28;;;;;;;9.73;4.47;;;6.50;99.90;;;;;;6218291;23;20154;-78
2021/12/20 08:57:22;;;;;;;8.27;3.17;;;6.50;99.90;;;;;;6217719;23;20139;-77
2021/12/20 10:25:23;;;;;;;5.28;1.85;;;7.10;99.90;;;;;;6237395;22;20031;-75
2021/12/20 10:28:40;;;;;;;3.92;1.50;;;6.00;99.90;;;;;;6218319;23;20073;-75
2021/12/20 10:44:42;;;;;;;7.65;1.77;;;10.40;99.90;;;;;;6186063;23;20032;-80
2021/12/20 10:50:56;;;;;;;12.38;2.17;;;12.60;99.90;;;;;;6151380;23;20040;-75
2021/12/20 10:54:22;;;;;;;6.68;2.05;;;14.40;99.90;;;;;;6149003;23;20012;-78
2021/12/20 11:09:27;;;;;;;11.03;2.83;;;18.10;97.90;;;;;;6215396;22;20460;-78
2021/12/20 11:15:44;;;;;;;9.75;2.50;;;18.60;86.80;;;;;;6187902;23;20329;-80
2021/12/20 11:22:44;;;;;;;8.57;2.22;;;19.00;83.40;;;;;;6180734;23;20472;-78
2021/12/20 11:29:41;;;;;;;7.20;3.00;;;19.10;80.90;;;;;;6214080;23;20019;-78
2021/12/20 11:32:11;;;;;;;8.73;4.15;;;19.20;74.00;;;;;;6187496;23;20345;-81
2021/12/20 12:01:52;;;;;;;9.57;2.33;;;20.20;59.40;;;;;;6185218;23;20087;-77
2021/12/20 12:33:23;;;;;;;7.78;2.17;;;19.50;59.30;;;;;;6277384;22;20015;-79
2021/12/20 12:36:03;;;;;;;10.93;2.95;;;19.90;69.10;;;;;;6246183;22;20367;-77
2021/12/20 12:38:50;;;;;;;9.15;2.72;;;19.90;66.50;;;;;;6243657;22;20081;-80
2021/12/20 12:41:21;;;;;;;7.80;2.72;;;20.00;64.20;;;;;;6246032;22;20051;-79
2021/12/20 12:44:01;;;;;;;10.88;2.80;;;19.50;71.70;;;;;;6212971;22;20028;-80
2021/12/20 13:00:57;;;;;;;8.57;2.50;;;15.20;90.90;;;;;;6192009;22;20020;-78
2021/12/20 13:03:27;;;;;;;7.22;2.50;;;13.30;95.30;;;;;;6247613;22;20315;-77
2021/12/20 13:05:53;;;;;;;9.95;2.50;;;12.60;97.30;;;;;;6247552;22;20023;-77
2021/12/20 13:08:20;;;;;;;6.85;2.42;;;12.00;98.50;;;;;;6247035;22;20012;-79
2021/12/20 13:10:51;;;;;;;6.25;2.70;;;11.60;99.90;;;;;;6247814;22;20024;-80
2021/12/20 13:13:23;;;;;;;8.18;3.00;;;11.20;99.80;;;;;;6248029;22;20016;-79
2021/12/20 13:15:58;;;;;;;7.78;2.63;;;10.90;99.90;;;;;;6270362;22;20020;-76
2021/12/20 13:18:31;;;;;;;10.57;2.53;;;10.60;99.90;;;;;;6272688;22;20410;-77
2021/12/20 13:21:05;;;;;;;9.13;2.17;;;10.60;99.90;;;;;;6247713;22;20020;-80
2021/12/20 13:23:40;;;;;;;9.40;2.50;;;11.50;99.90;;;;;;6272273;22;20011;-80
2021/12/20 13:26:11;;;;;;;7.82;2.13;;;11.60;99.90;;;;;;6248280;22;20022;-79
2021/12/20 13:28:42;;;;;;;6.00;2.40;;;12.10;99.90;;;;;;6245831;22;20023;-77
2021/12/20 13:31:14;;;;;;;7.20;2.08;;;12.30;99.90;;;;;;6247728;22;20027;-78
2021/12/20 13:33:51;;;;;;;6.38;1.88;;;12.30;98.70;;;;;;6246702;22;20047;-75
2021/12/20 13:36:31;;;;;;;17.48;7.88;;;12.10;98.20;;;;;;6244886;22;20015;-76
2021/12/20 13:38:59;;;;;;;22.52;11.95;;;12.00;97.80;;;;;;6246053;22;20023;-77
2021/12/20 13:41:33;;;;;;;23.52;13.95;;;11.70;98.40;;;;;;6273875;22;20126;-76
2021/12/20 13:44:01;;;;;;;17.35;12.40;;;11.40;99.60;;;;;;6273191;22;20019;-79
2021/12/20 13:51:59;;;;;;;8.48;4.07;;;10.90;99.90;;;;;;6237463;22;20034;-77
2021/12/20 14:17:25;;;;;;;7.47;2.30;;;8.70;99.90;;;;;;6177375;23;20020;-82
2021/12/20 14:20:37;;;;;;;6.75;2.40;;;8.30;99.90;;;;;;6155281;23;20025;-83
2021/12/20 14:47:15;;;;;;;10.57;3.78;;;7.00;99.90;;;;;;6239288;22;20681;-84
2021/12/20 14:50:35;;;;;;;11.18;5.43;;;6.80;99.90;;;;;;6165186;23;20024;-85
2021/12/20 15:03:20;;;;;;;7.03;2.00;;;6.30;99.90;;;;;;6238130;22;20456;-73
2021/12/20 15:09:11;;;;;;;6.25;1.85;;;6.10;99.90;;;;;;6216170;23;20024;-77
2021/12/20 15:11:37;;;;;;;;;;;6.00;99.90;;;;;;6219835;23;20122;-77
2021/12/20 15:14:04;;;;;;;8.35;2.50;;;5.90;99.90;;;;;;6245299;23;19960;-75
2021/12/20 15:16:30;;;;;;;9.68;2.53;;;5.80;99.90;;;;;;6244087;23;20333;-77
2021/12/20 15:18:56;;;;;;;;;;;5.70;99.90;;;;;;6214919;23;20028;-80
2021/12/20 15:29:08;;;;;;;8.13;2.35;;;5.30;99.90;;;;;;6266253;22;20034;-79
2021/12/20 15:39:36;;;;;;;12.52;7.13;;;4.30;99.90;;;;;;6179201;23;20386;-78
2021/12/20 15:44:37;;;;;;;8.75;2.67;;;4.70;99.90;;;;;;6252075;22;20463;-73
2021/12/20 15:47:03;;;;;;;;;;;4.60;99.90;;;;;;6217234;23;20016;-76
2021/12/20 15:49:29;;;;;;;7.65;2.70;;;4.50;99.90;;;;;;6217332;23;19926;-78
2021/12/20 15:51:54;;;;;;;;;;;4.40;99.90;;;;;;6218824;23;20019;-77
2021/12/20 15:54:26;;;;;;;10.13;3.25;;;4.40;99.90;;;;;;6218381;23;19922;-79
2021/12/20 16:02:15;;;;;;;9.48;4.20;;;4.20;99.90;;;;;;6243786;22;20086;-78
2021/12/20 16:05:09;;;;;;;12.10;4.20;;;3.90;99.90;;;;;;6197895;23;20047;-79
2021/12/20 16:08:00;;;;;;;10.13;3.63;;;4.00;99.90;;;;;;6218207;23;20020;-79
2021/12/20 16:10:26;;;;;;;7.60;3.55;;;4.10;99.90;;;;;;6217870;23;20016;-83
2021/12/20 16:13:06;;;;;;;;;;;3.80;99.90;;;;;;6218424;23;20066;-74
2021/12/20 16:15:32;;;;;;;9.65;3.30;;;3.40;99.90;;;;;;6245088;23;19916;-74
2021/12/20 16:18:33;;;;;;;;;;;3.60;99.90;;;;;;6218181;23;20020;-82
2021/12/20 16:21:45;;;;;;;10.85;3.13;;;3.70;99.90;;;;;;6187444;23;19962;-82
2021/12/20 16:24:11;;;;;;;6.60;3.03;;;3.60;99.90;;;;;;6210790;23;20043;-83
2021/12/20 16:26:48;;;;;;;;;;;3.60;99.90;;;;;;6187352;23;20460;-81
2021/12/20 16:29:57;;;;;;;8.55;2.60;;;3.60;99.90;;;;;;6186644;23;19930;-80
2021/12/20 16:36:04;;;;;;;7.63;2.40;;;3.40;99.90;;;;;;6213344;23;20087;-80
2021/12/20 16:38:48;;;;;;;8.68;2.72;;;3.40;99.90;;;;;;6220805;23;20346;-79
2021/12/20 16:41:14;;;;;;;;;;;3.20;99.90;;;;;;6218148;23;20095;-82
2021/12/20 16:44:18;;;;;;;12.70;4.35;;;3.20;99.90;;;;;;6215771;23;20328;-81
2021/12/20 16:47:21;;;;;;;8.75;3.30;;;3.20;99.90;;;;;;6180176;23;20404;-79
2021/12/20 16:50:15;;;;;;;7.13;2.95;;;3.10;99.90;;;;;;6182510;23;20040;-76
2021/12/20 16:52:41;;;;;;;8.23;3.15;;;3.10;99.90;;;;;;6147196;23;20418;-77
2021/12/20 16:55:07;;;;;;;;;;;2.90;99.90;;;;;;6181802;23;20013;-82
2021/12/20 16:57:33;;;;;;;7.20;2.88;;;3.00;99.90;;;;;;6156539;23;19955;-85
2021/12/20 17:00:00;;;;;;;7.70;2.85;;;3.00;99.90;;;;;;6165888;23;20012;-83
2021/12/20 17:02:42;;;;;;;8.57;2.97;;;2.90;99.90;;;;;;6216857;23;20027;-81
2021/12/20 17:05:10;;;;;;;7.40;2.80;;;2.90;99.90;;;;;;6217382;23;20030;-79
2021/12/20 17:07:42;;;;;;;7.47;3.08;;;2.90;99.90;;;;;;6216929;23;20332;-87
2021/12/20 17:10:08;;;;;;;7.50;3.05;;;2.80;99.90;;;;;;6244231;23;20154;-78
2021/12/20 17:12:33;;;;;;;;;;;3.20;99.90;;;;;;6244734;23;20452;-80
2021/12/20 17:14:59;;;;;;;11.00;3.45;;;2.70;99.90;;;;;;6216878;23;19915;-78
2021/12/20 17:17:25;;;;;;;;;;;2.70;99.90;;;;;;6217759;23;20016;-79
2021/12/20 17:19:50;;;;;;;9.25;3.90;;;2.70;99.90;;;;;;6217877;23;19973;-81
2021/12/20 17:22:16;;;;;;;;;;;2.60;99.90;;;;;;6217404;23;20078;-86
2021/12/20 17:24:47;;;;;;;10.50;3.67;;;2.60;99.90;;;;;;6217695;23;19920;-84
2021/12/20 17:27:12;;;;;;;7.57;3.22;;;2.50;99.90;;;;;;6217767;23;20031;-83
2021/12/20 17:29:38;;;;;;;;;;;2.50;99.90;;;;;;6216670;23;20023;-78
2021/12/20 17:32:04;;;;;;;8.80;4.05;;;2.50;99.90;;;;;;6244524;23;19916;-79
2021/12/20 17:34:29;;;;;;;;;;;2.40;99.90;;;;;;6216207;23;20016;-82
2021/12/20 17:36:55;;;;;;;8.25;3.70;;;2.40;99.90;;;;;;6217695;23;19915;-89
2021/12/20 17:39:21;;;;;;;;;;;2.30;99.90;;;;;;6217958;23;20035;-79
2021/12/20 17:41:46;;;;;;;13.63;6.53;;;2.30;99.90;;;;;;6243665;23;19961;-80
2021/12/20 17:44:12;;;;;;;;;;;2.20;99.90;;;;;;6217791;23;20012;-81
2021/12/20 17:46:38;;;;;;;13.50;7.10;;;2.20;99.90;;;;;;6218420;23;19915;-84
2021/12/20 17:49:04;;;;;;;12.38;6.10;;;2.10;99.90;;;;;;6224078;23;20016;-83
2021/12/20 17:51:29;;;;;;;;;;;3.20;99.90;;;;;;6218881;23;20020;-83
2021/12/20 17:53:56;;;;;;;12.40;5.32;;;2.10;99.90;;;;;;6217432;23;19938;-85
2021/12/20 17:56:23;;;;;;;8.63;4.50;;;2.10;99.90;;;;;;6216666;23;20020;-80
2021/12/20 17:58:49;;;;;;;8.50;4.72;;;2.00;99.90;;;;;;6245120;23;20012;-84
2021/12/20 18:01:16;;;;;;;;;;;2.00;99.90;;;;;;6217797;23;20024;-81
2021/12/20 18:03:42;;;;;;;10.27;4.45;;;2.00;99.90;;;;;;6216552;23;19922;-79
2021/12/20 18:06:12;;;;;;;10.85;4.32;;;1.90;99.90;;;;;;6217487;23;20016;-77
2021/12/20 18:08:37;;;;;;;10.60;4.47;;;1.90;99.90;;;;;;6244809;23;20040;-78
2021/12/20 18:11:03;;;;;;;;;;;1.90;99.90;;;;;;6217997;23;20028;-77
2021/12/20 18:13:31;;;;;;;8.07;3.80;;;1.80;99.90;;;;;;6244525;23;19942;-79
2021/12/20 18:16:00;;;;;;;12.57;4.50;;;1.80;99.90;;;;;;6218016;23;20016;-74
2021/12/20 18:18:25;;;;;;;;;;;1.80;99.90;;;;;;6217578;23;20031;-80
2021/12/20 18:20:51;;;;;;;11.65;4.53;;;1.70;99.90;;;;;;6218034;23;19916;-75
2021/12/20 18:23:17;;;;;;;;;;;1.70;99.90;;;;;;6217887;23;20020;-78
2021/12/20 18:25:43;;;;;;;14.18;4.35;;;1.70;99.90;;;;;;6216817;23;19965;-78
2021/12/20 18:28:08;;;;;;;;;;;1.70;99.90;;;;;;6217089;23;20020;-76
2021/12/20 18:30:37;;;;;;;11.05;4.57;;;1.70;99.90;;;;;;6243815;23;19915;-77
2021/12/20 18:33:04;;;;;;;12.25;5.03;;;1.60;99.90;;;;;;6213986;23;20069;-78
2021/12/20 18:35:32;;;;;;;10.02;5.05;;;1.60;99.90;;;;;;6213402;23;20013;-78
2021/12/20 18:37:58;;;;;;;11.52;5.13;;;1.60;99.90;;;;;;6216301;23;20012;-78
2021/12/20 18:40:24;;;;;;;;;;;1.60;99.90;;;;;;6216511;23;20386;-78
2021/12/20 18:42:49;;;;;;;13.95;5.15;;;1.60;99.90;;;;;;6215821;23;20332;-77
2021/12/20 18:45:15;;;;;;;;;;;1.50;99.90;;;;;;6218505;23;20020;-78
2021/12/20 18:47:43;;;;;;;10.20;4.78;;;1.50;99.90;;;;;;6217671;23;19922;-78
2021/12/20 18:50:09;;;;;;;9.23;4.63;;;1.50;99.90;;;;;;6219105;23;20051;-78
2021/12/20 18:52:35;;;;;;;13.77;5.10;;;1.40;99.90;;;;;;6218363;23;20046;-78
2021/12/20 18:55:01;;;;;;;;;;;1.40;99.90;;;;;;6218972;23;20016;-79
2021/12/20 18:57:29;;;;;;;13.32;4.65;;;1.40;99.90;;;;;;6246046;23;20238;-79
2021/12/20 18:59:55;;;;;;;8.63;4.50;;;1.40;99.90;;;;;;6217618;23;20020;-78
2021/12/20 19:02:21;;;;;;;;;;;1.40;99.90;;;;;;6245514;23;20031;-80
2021/12/20 19:04:50;;;;;;;11.25;5.43;;;1.30;99.90;;;;;;6218415;23;19923;-78
2021/12/20 19:07:15;;;;;;;9.95;5.18;;;1.30;99.90;;;;;;6218039;23;20015;-76
2021/12/20 19:09:48;;;;;;;;;;;1.30;99.90;;;;;;6218241;23;20746;-78
2021/12/20 19:12:18;;;;;;;12.07;4.88;;;1.30;99.90;;;;;;6214835;23;20259;-77
2021/12/20 19:14:49;;;;;;;8.48;4.88;;;1.20;99.90;;;;;;6217746;23;20511;-77
2021/12/20 19:17:14;;;;;;;10.48;5.10;;;1.20;99.90;;;;;;6218897;23;20030;-77
2021/12/20 19:19:40;;;;;;;;;;;1.20;99.90;;;;;;6218939;23;20019;-78
2021/12/20 19:22:08;;;;;;;9.68;5.43;;;1.20;99.90;;;;;;6245256;23;19922;-78
2021/12/20 19:24:43;;;;;;;14.00;5.82;;;1.10;99.90;;;;;;6218199;23;20024;-78
2021/12/20 19:27:10;;;;;;;9.90;5.80;;;1.10;99.90;;;;;;6218354;23;20020;-78
2021/12/20 19:29:42;;;;;;;10.95;5.63;;;1.10;99.90;;;;;;6245943;23;20027;-78
2021/12/20 19:32:09;;;;;;;9.93;5.97;;;1.10;99.90;;;;;;6245855;23;20012;-78
2021/12/20 19:34:36;;;;;;;10.55;5.80;;;1.00;99.90;;;;;;6217821;23;20031;-77
2021/12/20 19:37:03;;;;;;;11.05;5.35;;;1.00;99.90;;;;;;6218920;23;20022;-78
2021/12/20 19:39:39;;;;;;;8.27;5.50;;;1.00;99.90;;;;;;6218270;23;20023;-78
2021/12/20 19:42:07;;;;;;;9.68;5.18;;;1.00;99.90;;;;;;6218210;23;20019;-78
2021/12/20 19:44:37;;;;;;;8.95;5.18;;;1.00;99.90;;;;;;6218273;23;20331;-76
2021/12/20 19:47:04;;;;;;;10.38;5.40;;;1.00;99.90;;;;;;6218570;23;20083;-77
2021/12/20 19:49:29;;;;;;;10.95;6.00;;;1.00;99.90;;;;;;6217688;23;20012;-79
2021/12/20 19:51:55;;;;;;;;;;;0.90;99.90;;;;;;6218703;23;20027;-76
2021/12/20 19:54:23;;;;;;;13.73;6.00;;;0.90;99.90;;;;;;6217409;23;19919;-76
2021/12/20 19:56:50;;;;;;;12.70;6.03;;;0.90;99.90;;;;;;6217190;23;20016;-76
2021/12/20 19:59:16;;;;;;;12.80;6.18;;;0.90;99.90;;;;;;6218313;23;20016;-76
2021/12/20 20:01:45;;;;;;;;;;;0.90;99.90;;;;;;6218550;23;20046;-76
2021/12/20 20:04:13;;;;;;;15.55;6.97;;;0.80;99.90;;;;;;6217303;23;20354;-77
2021/12/20 20:06:39;;;;;;;10.23;5.68;;;0.80;99.90;;;;;;6244800;23;20040;-74
2021/12/20 20:09:04;;;;;;;;;;;0.80;99.90;;;;;;6218591;23;20012;-75
2021/12/20 20:11:30;;;;;;;12.50;6.03;;;0.80;99.90;;;;;;6216909;23;19915;-77
2021/12/20 20:13:56;;;;;;;;;;;0.80;99.90;;;;;;6218687;23;20077;-82
2021/12/20 20:16:24;;;;;;;11.27;6.10;;;0.70;99.90;;;;;;6214868;23;19923;-80
2021/12/20 20:18:50;;;;;;;;;;;0.70;99.90;;;;;;6218110;23;20367;-79
2021/12/20 20:21:15;;;;;;;12.48;5.57;;;0.70;99.90;;;;;;6245035;23;19912;-77
2021/12/20 20:23:43;;;;;;;13.70;7.18;;;0.60;99.90;;;;;;6217131;23;20440;-77
2021/12/20 20:26:14;;;;;;;13.07;7.13;;;0.60;99.90;;;;;;6213527;23;20027;-75
2021/12/20 20:28:44;;;;;;;11.18;6.32;;;0.60;99.90;;;;;;6242088;23;20099;-76
2021/12/20 20:31:10;;;;;;;16.67;6.45;;;0.60;99.90;;;;;;6244371;23;20083;-77
2021/12/20 20:33:35;;;;;;;;;;;0.60;99.90;;;;;;6245008;23;20487;-75
2021/12/20 20:36:04;;;;;;;10.38;6.18;;;0.60;99.90;;;;;;6216808;23;19919;-75
2021/12/20 20:38:29;;;;;;;;;;;0.60;99.90;;;;;;6216929;23;20098;-76
2021/12/20 20:40:55;;;;;;;9.85;5.00;;;0.60;99.90;;;;;;6245608;23;19922;-74
2021/12/20 20:43:21;;;;;;;11.68;4.80;;;0.60;99.90;;;;;;6215308;23;20507;-76
2021/12/20 20:45:47;;;;;;;;;;;0.60;99.90;;;;;;6247437;23;20063;-80
2021/12/20 20:48:15;;;;;;;13.32;5.22;;;0.50;99.90;;;;;;6228436;23;19916;-82
2021/12/20 20:50:41;;;;;;;10.60;5.32;;;0.50;99.90;;;;;;6225536;23;20403;-82
2021/12/20 20:53:06;;;;;;;;;;;0.50;99.90;;;;;;6219180;23;20020;-82
2021/12/20 20:55:32;;;;;;;10.70;5.03;;;0.50;99.90;;;;;;6217241;23;19919;-76
2021/12/20 20:57:58;;;;;;;;;;;0.50;99.90;;;;;;6245280;23;20081;-77
2021/12/20 21:03:11;;;;;;;;;;;0.40;99.90;;;;;;6217392;23;20035;-75
2021/12/20 21:05:37;;;;;;;11.30;7.15;;;0.40;99.90;;;;;;6215080;23;20278;-76
2021/12/20 21:08:02;;;;;;;;;;;0.30;99.90;;;;;;6218299;23;20436;-75